createdAt,value
2022-10-16T00:00:52.762Z,88.17
2022-10-16T00:01:52.797Z,87.30
2022-10-16T00:02:52.736Z,88.21
2022-10-16T00:03:52.737Z,87.86
2022-10-16T00:04:52.715Z,89.78
2022-10-16T00:05:52.704Z,89.22
2022-10-16T00:06:52.742Z,87.50
2022-10-16T00:07:52.674Z,88.41
2022-10-16T00:08:52.673Z,87.60
2022-10-16T00:09:52.654Z,87.90
2022-10-16T00:10:52.657Z,89.52
2022-10-16T00:11:52.633Z,88.71
2022-10-16T00:12:52.651Z,88.10
2022-10-16T00:13:52.624Z,88.61
2022-10-16T00:14:52.603Z,88.41
2022-10-16T00:15:52.586Z,87.50
2022-10-16T00:16:52.583Z,87.64
2022-10-16T00:17:52.568Z,87.70
2022-10-16T00:18:52.585Z,87.34
2022-10-16T00:19:52.544Z,87.10
2022-10-16T00:20:52.545Z,86.43
2022-10-16T00:21:52.525Z,86.63
2022-10-16T00:22:52.515Z,86.59
2022-10-16T00:23:52.506Z,88.25
2022-10-16T00:24:52.505Z,87.64
2022-10-16T00:25:52.476Z,87.24
2022-10-16T00:26:52.474Z,87.34
2022-10-16T00:27:52.453Z,87.44
2022-10-16T00:28:52.497Z,86.63
2022-10-16T00:29:52.494Z,86.73
2022-10-16T00:30:52.425Z,86.83
2022-10-16T00:31:52.407Z,85.42
2022-10-16T00:32:52.405Z,86.33
2022-10-16T00:33:52.397Z,87.13
2022-10-16T00:34:52.376Z,88.25
2022-10-16T00:35:52.385Z,87.64
2022-10-16T00:36:52.356Z,87.95
2022-10-16T00:37:52.344Z,87.04
2022-10-16T00:38:52.368Z,87.44
2022-10-16T00:39:52.317Z,87.74
2022-10-16T00:40:52.315Z,86.83
2022-10-16T00:41:52.315Z,86.93
2022-10-16T00:42:52.294Z,87.64
2022-10-16T00:43:52.280Z,88.15
2022-10-16T00:44:52.267Z,86.83
2022-10-16T00:45:52.254Z,88.25
2022-10-16T00:46:52.277Z,86.63
2022-10-16T00:47:52.306Z,87.13
2022-10-16T00:48:52.217Z,88.15
2022-10-16T00:49:52.206Z,87.84
2022-10-16T00:50:52.198Z,87.64
2022-10-16T00:51:52.177Z,87.64
2022-10-16T00:52:52.198Z,89.06
2022-10-16T00:53:52.168Z,88.35
2022-10-16T00:54:52.158Z,88.75
2022-10-16T00:55:52.138Z,89.87
2022-10-16T00:56:52.136Z,90.98
2022-10-16T00:57:52.126Z,89.36
2022-10-16T00:58:52.130Z,89.26
2022-10-16T00:59:52.099Z,89.76
2022-10-16T01:00:52.144Z,87.95
2022-10-16T01:01:52.067Z,88.85
2022-10-16T01:02:52.059Z,88.85
2022-10-16T01:03:52.058Z,88.55
2022-10-16T01:04:52.059Z,87.74
2022-10-16T01:05:52.030Z,86.67
2022-10-16T01:06:52.022Z,87.54
2022-10-16T01:07:52.007Z,89.16
2022-10-16T01:08:51.997Z,88.04
2022-10-16T01:09:51.978Z,88.85
2022-10-16T01:10:52.008Z,89.26
2022-10-16T01:11:51.962Z,87.48
2022-10-16T01:12:51.952Z,88.70
2022-10-16T01:13:51.949Z,87.58
2022-10-16T01:14:51.928Z,86.87
2022-10-16T01:15:51.920Z,87.13
2022-10-16T01:16:51.920Z,88.45
2022-10-16T01:17:51.889Z,89.46
2022-10-16T01:18:51.889Z,88.15
2022-10-16T01:19:51.878Z,89.26
2022-10-16T01:20:51.871Z,89.66
2022-10-16T01:21:51.898Z,88.75
2022-10-16T01:22:51.841Z,89.16
2022-10-16T01:23:51.873Z,88.85
2022-10-16T01:24:51.820Z,88.96
2022-10-16T01:25:51.802Z,88.55
2022-10-16T01:26:51.790Z,89.66
2022-10-16T01:27:51.802Z,89.56
2022-10-16T01:28:51.829Z,88.96
2022-10-16T01:29:51.761Z,88.75
2022-10-16T01:30:51.751Z,87.95
2022-10-16T01:31:51.732Z,87.44
2022-10-16T01:32:51.728Z,87.64
2022-10-16T01:33:51.740Z,88.15
2022-10-16T01:34:51.703Z,87.95
2022-10-16T01:35:51.690Z,87.64
2022-10-16T01:36:51.680Z,88.45
2022-10-16T01:37:51.669Z,88.65
2022-10-16T01:38:51.694Z,86.63
2022-10-16T01:39:51.651Z,87.24
2022-10-16T01:40:51.640Z,86.83
2022-10-16T01:41:51.631Z,86.73
2022-10-16T01:42:51.665Z,85.31
2022-10-16T01:43:51.609Z,85.42
2022-10-16T01:44:51.619Z,85.72
2022-10-16T01:45:51.580Z,85.99
2022-10-16T01:46:51.571Z,86.22
2022-10-16T01:47:51.568Z,84.47
2022-10-16T01:48:51.551Z,85.28
2022-10-16T01:49:51.532Z,84.06
2022-10-16T01:50:51.543Z,84.77
2022-10-16T01:51:51.559Z,85.08
2022-10-16T01:52:51.501Z,85.78
2022-10-16T01:53:51.501Z,86.39
2022-10-16T01:54:51.482Z,85.68
2022-10-16T01:55:51.489Z,86.49
2022-10-16T01:56:51.471Z,84.97
2022-10-16T01:57:51.441Z,84.27
2022-10-16T01:58:51.432Z,84.06
2022-10-16T01:59:51.427Z,83.96
2022-10-16T02:00:51.444Z,84.17
2022-10-16T02:01:52.311Z,85.78
2022-10-16T02:02:51.392Z,86.15
2022-10-16T02:03:51.384Z,86.25
2022-10-16T02:04:51.373Z,84.53
2022-10-16T02:05:51.352Z,84.23
2022-10-16T02:06:51.353Z,84.12
2022-10-16T02:07:51.352Z,84.33
2022-10-16T02:08:51.326Z,86.75
2022-10-16T02:09:51.314Z,84.93
2022-10-16T02:10:51.305Z,84.83
2022-10-16T02:11:51.283Z,84.73
2022-10-16T02:12:51.282Z,84.33
2022-10-16T02:13:51.300Z,85.74
2022-10-16T02:14:51.265Z,84.63
2022-10-16T02:15:51.235Z,84.93
2022-10-16T02:16:51.250Z,84.43
2022-10-16T02:17:51.223Z,85.40
2022-10-16T02:18:51.205Z,86.91
2022-10-16T02:19:51.222Z,86.35
2022-10-16T02:20:51.183Z,84.33
2022-10-16T02:21:51.174Z,85.14
2022-10-16T02:22:51.164Z,85.50
2022-10-16T02:23:51.164Z,85.19
2022-10-16T02:24:51.203Z,87.21
2022-10-16T02:25:51.135Z,86.61
2022-10-16T02:26:51.114Z,86.61
2022-10-16T02:27:51.114Z,87.01
2022-10-16T02:29:51.084Z,87.01
2022-10-16T02:30:51.095Z,86.71
2022-10-16T02:31:51.063Z,86.81
2022-10-16T02:32:51.051Z,86.81
2022-10-16T02:33:51.046Z,87.52
2022-10-16T02:34:51.023Z,86.91
2022-10-16T02:35:51.038Z,86.61
2022-10-16T02:36:51.005Z,84.83
2022-10-16T02:37:50.995Z,84.59
2022-10-16T02:38:50.976Z,85.50
2022-10-16T02:39:50.975Z,85.80
2022-10-16T02:40:50.956Z,86.00
2022-10-16T02:41:50.976Z,85.90
2022-10-16T02:42:50.936Z,85.10
2022-10-16T02:43:50.934Z,86.51
2022-10-16T02:44:50.915Z,85.50
2022-10-16T02:45:50.904Z,85.90
2022-10-16T02:46:50.885Z,86.21
2022-10-16T02:47:50.948Z,85.60
2022-10-16T02:48:50.866Z,86.00
2022-10-16T02:49:50.928Z,85.70
2022-10-16T02:50:50.846Z,86.81
2022-10-16T02:51:50.835Z,84.49
2022-10-16T02:52:50.827Z,86.21
2022-10-16T02:53:50.836Z,84.39
2022-10-16T02:54:50.799Z,87.12
2022-10-16T02:55:50.797Z,85.76
2022-10-16T02:56:50.777Z,86.61
2022-10-16T02:57:50.768Z,87.32
2022-10-16T02:58:50.757Z,84.39
2022-10-16T02:59:50.766Z,84.29
2022-10-16T03:00:50.769Z,83.88
2022-10-16T03:01:50.728Z,83.58
2022-10-16T03:02:50.711Z,84.75
2022-10-16T03:03:50.706Z,86.16
2022-10-16T03:04:50.684Z,86.87
2022-10-16T03:05:50.698Z,87.27
2022-10-16T03:06:50.665Z,85.50
2022-10-16T03:07:50.657Z,86.97
2022-10-16T03:08:50.637Z,85.76
2022-10-16T03:09:50.638Z,86.47
2022-10-16T03:10:50.617Z,86.07
2022-10-16T03:11:50.639Z,86.57
2022-10-16T03:12:50.600Z,87.68
2022-10-16T03:13:50.598Z,87.58
2022-10-16T03:14:50.576Z,85.10
2022-10-16T03:15:50.567Z,84.89
2022-10-16T03:16:50.549Z,85.56
2022-10-16T03:17:50.558Z,87.48
2022-10-16T03:18:50.528Z,85.76
2022-10-16T03:19:50.518Z,87.07
2022-10-16T03:20:50.507Z,86.97
2022-10-16T03:21:50.498Z,86.71
2022-10-16T03:22:50.508Z,85.66
2022-10-16T03:23:50.479Z,86.36
2022-10-16T03:24:50.461Z,86.30
2022-10-16T03:25:50.452Z,85.60
2022-10-16T03:26:50.430Z,85.46
2022-10-16T03:27:50.429Z,86.57
2022-10-16T03:28:50.508Z,87.58
2022-10-16T03:29:50.401Z,86.30
2022-10-16T03:30:50.392Z,85.30
2022-10-16T03:31:50.379Z,85.14
2022-10-16T03:32:50.699Z,84.29
2022-10-16T03:33:50.368Z,85.80
2022-10-16T03:34:50.368Z,92.30
2022-10-16T03:35:50.340Z,96.59
2022-10-16T03:36:50.319Z,98.21
2022-10-16T03:37:50.309Z,96.59
2022-10-16T03:38:50.298Z,96.49
2022-10-16T03:39:50.288Z,96.55
2022-10-16T03:40:50.289Z,98.97
2022-10-16T03:41:50.270Z,98.82
2022-10-16T03:42:50.250Z,99.02
2022-10-16T03:43:50.309Z,98.71
2022-10-16T03:44:50.230Z,98.92
2022-10-16T03:45:50.249Z,98.92
2022-10-16T03:46:50.210Z,98.82
2022-10-16T03:47:50.200Z,98.92
2022-10-16T03:48:50.185Z,99.12
2022-10-16T03:49:50.179Z,99.12
2022-10-16T03:50:50.162Z,98.82
2022-10-16T03:51:50.170Z,99.37
2022-10-16T03:52:50.139Z,98.96
2022-10-16T03:53:50.147Z,98.96
2022-10-16T03:54:57.155Z,98.82
2022-10-16T03:55:50.117Z,98.71
2022-10-16T03:56:50.115Z,98.51
2022-10-16T03:57:50.084Z,98.41
2022-10-16T03:58:50.065Z,98.31
2022-10-16T03:59:50.065Z,98.31
2022-10-16T04:00:50.098Z,98.31
2022-10-16T04:01:50.045Z,98.21
2022-10-16T04:02:50.055Z,98.01
2022-10-16T04:03:50.020Z,98.11
2022-10-16T04:04:49.996Z,98.01
2022-10-16T04:05:49.995Z,97.55
2022-10-16T04:06:49.976Z,97.05
2022-10-16T04:07:49.969Z,96.44
2022-10-16T04:08:49.975Z,96.23
2022-10-16T04:09:49.946Z,96.09
2022-10-16T04:10:49.934Z,95.68
2022-10-16T04:11:49.926Z,95.58
2022-10-16T04:12:49.914Z,95.68
2022-10-16T04:13:49.934Z,95.68
2022-10-16T04:14:49.897Z,95.78
2022-10-16T04:15:49.876Z,96.09
2022-10-16T04:16:49.860Z,95.89
2022-10-16T04:17:49.856Z,95.78
2022-10-16T04:18:49.837Z,95.78
2022-10-16T04:19:49.846Z,95.68
2022-10-16T04:20:49.816Z,95.28
2022-10-16T04:21:49.806Z,95.78
2022-10-16T04:22:49.798Z,95.28
2022-10-16T04:23:49.787Z,95.28
2022-10-16T04:24:49.794Z,94.47
2022-10-16T04:25:49.765Z,93.76
2022-10-16T04:26:49.747Z,93.46
2022-10-16T04:27:49.746Z,92.55
2022-10-16T04:28:49.792Z,92.25
2022-10-16T04:29:49.726Z,92.71
2022-10-16T04:30:49.717Z,93.21
2022-10-16T04:31:49.698Z,93.12
2022-10-16T04:32:49.710Z,93.62
2022-10-16T04:33:49.678Z,93.21
2022-10-16T04:34:49.658Z,93.32
2022-10-16T04:35:49.669Z,93.72
2022-10-16T04:36:49.638Z,93.82
2022-10-16T04:37:49.627Z,94.23
2022-10-16T04:38:49.616Z,93.92
2022-10-16T04:39:49.608Z,93.72
2022-10-16T04:40:49.588Z,94.23
2022-10-16T04:41:49.597Z,93.52
2022-10-16T04:42:49.568Z,92.50
2022-10-16T04:43:49.558Z,91.74
2022-10-16T04:44:49.546Z,91.03
2022-10-16T04:45:49.538Z,90.08
2022-10-16T04:46:49.519Z,90.89
2022-10-16T04:47:49.529Z,91.19
2022-10-16T04:48:49.498Z,90.19
2022-10-16T04:49:49.489Z,88.67
2022-10-16T04:50:53.058Z,88.77
2022-10-16T04:51:50.469Z,87.86
2022-10-16T04:52:49.458Z,87.26
2022-10-16T04:53:49.467Z,87.15
2022-10-16T04:54:49.429Z,87.05
2022-10-16T04:55:49.421Z,86.75
2022-10-16T04:56:49.408Z,85.94
2022-10-16T04:57:49.401Z,84.83
2022-10-16T04:58:49.408Z,85.84
2022-10-16T04:59:49.379Z,85.24
2022-10-16T05:00:49.368Z,85.03
2022-10-16T05:01:49.358Z,85.94
2022-10-16T05:02:49.382Z,85.74
2022-10-16T05:03:49.332Z,87.21
2022-10-16T05:04:49.330Z,87.05
2022-10-16T05:05:49.309Z,85.54
2022-10-16T05:06:49.297Z,85.74
2022-10-16T05:07:49.288Z,85.54
2022-10-16T05:08:49.270Z,85.34
2022-10-16T05:09:49.280Z,86.45
2022-10-16T05:10:49.249Z,85.94
2022-10-16T05:11:49.240Z,85.34
2022-10-16T05:12:49.220Z,84.93
2022-10-16T05:13:51.026Z,86.55
2022-10-16T05:14:49.201Z,86.35
2022-10-16T05:15:49.230Z,85.54
2022-10-16T05:16:49.196Z,85.54
2022-10-16T05:17:49.171Z,85.94
2022-10-16T05:18:52.977Z,86.15
2022-10-16T05:19:49.151Z,86.25
2022-10-16T05:20:49.134Z,86.95
2022-10-16T05:21:49.171Z,86.25
2022-10-16T05:22:49.112Z,86.15
2022-10-16T05:23:49.101Z,86.85
2022-10-16T05:24:49.091Z,86.65
2022-10-16T05:25:49.082Z,86.04
2022-10-16T05:26:49.064Z,86.45
2022-10-16T05:27:49.080Z,87.36
2022-10-16T05:28:49.091Z,87.36
2022-10-16T05:29:49.042Z,87.96
2022-10-16T05:30:49.021Z,87.72
2022-10-16T05:31:49.013Z,88.32
2022-10-16T05:32:49.001Z,88.73
2022-10-16T05:34:48.981Z,88.57
2022-10-16T05:35:48.973Z,88.06
2022-10-16T05:36:48.952Z,88.26
2022-10-16T05:37:48.942Z,87.96
2022-10-16T05:38:48.953Z,87.76
2022-10-16T05:39:48.922Z,87.66
2022-10-16T05:40:48.912Z,87.56
2022-10-16T05:41:48.902Z,87.56
2022-10-16T05:42:48.883Z,87.86
2022-10-16T05:43:48.891Z,88.12
2022-10-16T05:44:48.882Z,89.13
2022-10-16T05:45:48.854Z,89.68
2022-10-16T05:46:48.834Z,87.96
2022-10-16T05:47:48.832Z,88.23
2022-10-16T05:48:48.813Z,88.63
2022-10-16T05:49:48.812Z,89.84
2022-10-16T05:50:48.814Z,88.67
2022-10-16T05:51:48.785Z,88.87
2022-10-16T05:52:48.772Z,86.95
2022-10-16T05:53:48.768Z,87.82
2022-10-16T05:54:48.753Z,89.34
2022-10-16T05:55:48.734Z,89.23
2022-10-16T05:56:48.747Z,88.43
2022-10-16T05:57:48.723Z,89.74
2022-10-16T05:58:48.702Z,90.75
2022-10-16T05:59:48.694Z,90.75
2022-10-16T06:00:48.720Z,90.04
2022-10-16T06:01:48.673Z,90.45
2022-10-16T06:02:48.684Z,90.34
2022-10-16T06:03:48.648Z,90.75
2022-10-16T06:04:48.635Z,90.75
2022-10-16T06:05:48.659Z,90.34
2022-10-16T06:06:48.613Z,89.74
2022-10-16T06:07:48.625Z,89.84
2022-10-16T06:08:48.600Z,90.14
2022-10-16T06:09:48.576Z,89.03
2022-10-16T06:10:48.565Z,89.43
2022-10-16T06:11:48.576Z,89.54
2022-10-16T06:12:48.543Z,89.34
2022-10-16T06:13:48.555Z,89.64
2022-10-16T06:14:48.563Z,88.53
2022-10-16T06:15:48.513Z,88.06
2022-10-16T06:16:48.495Z,89.03
2022-10-16T06:17:48.496Z,88.12
2022-10-16T06:18:48.476Z,89.13
2022-10-16T06:19:48.483Z,89.03
2022-10-16T06:20:48.467Z,88.93
2022-10-16T06:21:48.445Z,88.43
2022-10-16T06:22:48.426Z,87.66
2022-10-16T06:23:48.417Z,87.56
2022-10-16T06:24:48.457Z,88.83
2022-10-16T06:25:48.398Z,89.23
2022-10-16T06:26:48.385Z,89.13
2022-10-16T06:27:48.377Z,88.67
2022-10-16T06:28:48.416Z,87.96
2022-10-16T06:29:48.355Z,87.82
2022-10-16T06:30:48.364Z,88.53
2022-10-16T06:31:48.325Z,89.13
2022-10-16T06:32:48.333Z,90.24
2022-10-16T06:33:48.304Z,88.53
2022-10-16T06:34:48.296Z,89.64
2022-10-16T06:35:48.277Z,90.55
2022-10-16T06:36:48.287Z,89.64
2022-10-16T06:37:48.258Z,88.83
2022-10-16T06:38:48.248Z,88.73
2022-10-16T06:39:48.247Z,88.93
2022-10-16T06:40:48.236Z,89.13
2022-10-16T06:41:48.297Z,89.54
2022-10-16T06:42:48.206Z,90.34
2022-10-16T06:43:48.198Z,89.23
2022-10-16T06:44:48.180Z,89.23
2022-10-16T06:45:48.168Z,89.23
2022-10-16T06:46:48.157Z,88.53
2022-10-16T06:47:48.176Z,90.85
2022-10-16T06:48:48.150Z,89.03
2022-10-16T06:49:51.825Z,90.14
2022-10-16T06:50:49.109Z,90.24
2022-10-16T06:51:48.096Z,90.95
2022-10-16T06:52:48.208Z,90.04
2022-10-16T06:54:02.390Z,89.84
2022-10-16T06:54:49.068Z,89.54
2022-10-16T06:55:48.050Z,90.85
2022-10-16T06:56:48.040Z,90.85
2022-10-16T06:57:48.029Z,90.75
2022-10-16T06:58:48.040Z,91.35
2022-10-16T06:59:49.342Z,90.91
2022-10-16T07:00:48.000Z,92.02
2022-10-16T07:01:47.990Z,92.42
2022-10-16T07:02:47.979Z,91.25
2022-10-16T07:03:47.961Z,91.25
2022-10-16T07:04:47.970Z,91.25
2022-10-16T07:05:47.939Z,91.15
2022-10-16T07:06:47.931Z,90.85
2022-10-16T07:07:47.918Z,91.46
2022-10-16T07:08:47.908Z,91.76
2022-10-16T07:09:47.890Z,91.15
2022-10-16T07:10:47.899Z,91.11
2022-10-16T07:11:47.870Z,93.53
2022-10-16T07:12:47.860Z,92.42
2022-10-16T07:13:50.984Z,92.02
2022-10-16T07:14:48.838Z,92.02
2022-10-16T07:15:47.821Z,92.82
2022-10-16T07:16:47.838Z,91.61
2022-10-16T07:17:47.800Z,92.42
2022-10-16T07:18:47.791Z,92.52
2022-10-16T07:19:47.779Z,93.23
2022-10-16T07:20:47.770Z,93.53
2022-10-16T07:21:47.751Z,93.23
2022-10-16T07:22:47.762Z,93.53
2022-10-16T07:23:47.730Z,93.63
2022-10-16T07:24:52.350Z,93.02
2022-10-16T07:25:48.708Z,94.04
2022-10-16T07:26:47.703Z,93.13
2022-10-16T07:27:47.689Z,94.04
2022-10-16T07:28:47.737Z,93.23
2022-10-16T07:29:47.662Z,92.93
2022-10-16T07:30:47.653Z,93.63
2022-10-16T07:31:47.641Z,92.82
2022-10-16T07:32:47.730Z,92.72
2022-10-16T07:33:47.614Z,92.72
2022-10-16T07:34:47.623Z,93.73
2022-10-16T07:35:47.592Z,92.62
2022-10-16T07:36:47.584Z,92.93
2022-10-16T07:37:47.571Z,93.13
2022-10-16T07:38:47.562Z,93.43
2022-10-16T07:39:47.573Z,93.23
2022-10-16T07:40:47.542Z,93.23
2022-10-16T07:41:47.527Z,92.62
2022-10-16T07:42:47.520Z,93.33
2022-10-16T07:43:47.502Z,93.23
2022-10-16T07:44:47.501Z,93.02
2022-10-16T07:45:47.534Z,93.33
2022-10-16T07:46:47.477Z,93.38
2022-10-16T07:47:47.461Z,93.29
2022-10-16T07:48:47.453Z,94.29
2022-10-16T07:49:47.434Z,94.39
2022-10-16T07:50:47.423Z,94.09
2022-10-16T07:51:47.432Z,94.44
2022-10-16T07:52:47.403Z,93.73
2022-10-16T07:53:47.384Z,93.73
2022-10-16T07:54:47.417Z,93.69
2022-10-16T07:55:47.376Z,93.99
2022-10-16T07:56:47.382Z,93.99
2022-10-16T07:57:47.343Z,94.24
2022-10-16T07:58:47.333Z,93.89
2022-10-16T07:59:47.323Z,93.89
2022-10-16T08:00:47.313Z,93.53
2022-10-16T08:01:47.341Z,93.73
2022-10-16T08:02:47.313Z,93.33
2022-10-16T08:03:47.275Z,92.88
2022-10-16T08:04:47.264Z,93.63
2022-10-16T08:05:47.254Z,93.89
2022-10-16T08:06:47.244Z,93.99
2022-10-16T08:07:47.232Z,94.13
2022-10-16T08:08:47.236Z,93.63
2022-10-16T08:09:47.206Z,93.89
2022-10-16T08:10:47.208Z,93.89
2022-10-16T08:11:47.191Z,94.80
2022-10-16T08:12:47.188Z,94.19
2022-10-16T08:13:47.181Z,94.29
2022-10-16T08:14:47.832Z,95.36
2022-10-16T08:15:47.159Z,95.40
2022-10-16T08:16:47.136Z,94.85
2022-10-16T08:17:47.116Z,95.15
2022-10-16T08:18:47.110Z,95.76
2022-10-16T08:19:47.150Z,96.26
2022-10-16T08:20:47.086Z,95.36
2022-10-16T08:21:47.066Z,95.86
2022-10-16T08:22:47.066Z,95.86
2022-10-16T08:23:47.845Z,95.66
2022-10-16T08:24:47.039Z,95.15
2022-10-16T08:25:47.045Z,95.56
2022-10-16T08:26:47.016Z,95.96
2022-10-16T08:27:46.999Z,96.12
2022-10-16T08:28:47.033Z,96.22
2022-10-16T08:29:46.986Z,96.42
2022-10-16T08:30:47.024Z,96.22
2022-10-16T08:31:46.958Z,96.62
2022-10-16T08:32:46.948Z,96.32
2022-10-16T08:33:46.939Z,96.52
2022-10-16T08:34:46.933Z,97.23
2022-10-16T08:35:46.916Z,97.03
2022-10-16T08:36:46.926Z,96.92
2022-10-16T08:37:46.896Z,96.83
2022-10-16T08:38:46.885Z,96.78
2022-10-16T08:39:46.867Z,97.08
2022-10-16T08:40:49.793Z,97.08
2022-10-16T08:41:47.868Z,97.08
2022-10-16T08:42:46.838Z,97.49
2022-10-16T08:43:46.828Z,97.63
2022-10-16T08:44:46.816Z,97.13
2022-10-16T08:45:46.799Z,96.92
2022-10-16T08:46:50.445Z,97.03
2022-10-16T08:47:46.796Z,97.03
2022-10-16T08:48:46.769Z,96.92
2022-10-16T08:49:46.765Z,96.92
2022-10-16T08:50:46.809Z,96.12
2022-10-16T08:51:46.730Z,97.03
2022-10-16T08:52:46.749Z,97.13
2022-10-16T08:53:46.709Z,97.18
2022-10-16T08:54:46.699Z,97.38
2022-10-16T08:55:46.691Z,97.18
2022-10-16T08:56:46.698Z,97.28
2022-10-16T08:57:46.666Z,97.38
2022-10-16T08:59:46.659Z,97.13
2022-10-16T09:00:46.708Z,97.74
2022-10-16T09:01:46.638Z,97.53
2022-10-16T09:02:46.621Z,97.33
2022-10-16T09:03:46.629Z,97.53
2022-10-16T09:04:46.589Z,97.53
2022-10-16T09:05:46.579Z,97.69
2022-10-16T09:06:46.576Z,97.59
2022-10-16T09:07:46.650Z,97.24
2022-10-16T09:08:46.550Z,97.24
2022-10-16T09:09:46.562Z,97.90
2022-10-16T09:10:46.531Z,97.80
2022-10-16T09:11:46.510Z,97.90
2022-10-16T09:12:46.517Z,98.00
2022-10-16T09:13:46.490Z,97.80
2022-10-16T09:14:46.503Z,97.80
2022-10-16T09:15:46.474Z,98.00
2022-10-16T09:16:46.460Z,97.80
2022-10-16T09:17:46.441Z,97.90
2022-10-16T09:18:46.445Z,97.70
2022-10-16T09:19:46.425Z,97.70
2022-10-16T09:20:46.439Z,97.70
2022-10-16T09:21:46.400Z,97.80
2022-10-16T09:22:46.391Z,97.90
2022-10-16T09:23:46.373Z,97.30
2022-10-16T09:24:46.372Z,98.00
2022-10-16T09:25:46.353Z,97.64
2022-10-16T09:26:46.367Z,97.95
2022-10-16T09:27:46.334Z,98.10
2022-10-16T09:28:46.397Z,97.60
2022-10-16T09:29:46.318Z,97.85
2022-10-16T09:30:46.302Z,97.85
2022-10-16T09:31:46.343Z,97.66
2022-10-16T09:32:46.282Z,97.85
2022-10-16T09:33:46.271Z,97.55
2022-10-16T09:34:46.262Z,97.61
2022-10-16T09:35:46.244Z,97.71
2022-10-16T09:36:46.233Z,97.46
2022-10-16T09:37:46.245Z,97.16
2022-10-16T09:38:46.212Z,97.06
2022-10-16T09:39:46.202Z,97.21
2022-10-16T09:40:47.738Z,97.11
2022-10-16T09:41:46.174Z,96.97
2022-10-16T09:42:46.164Z,96.97
2022-10-16T09:43:46.174Z,96.26
2022-10-16T09:44:46.158Z,96.26
2022-10-16T09:45:46.125Z,95.97
2022-10-16T09:46:46.124Z,95.97
2022-10-16T09:47:46.104Z,95.66
2022-10-16T09:48:46.175Z,95.66
2022-10-16T09:49:46.106Z,96.26
2022-10-16T09:50:46.075Z,96.36
2022-10-16T09:51:46.063Z,96.01
2022-10-16T09:52:46.054Z,96.51
2022-10-16T09:53:46.064Z,96.31
2022-10-16T09:54:53.103Z,96.51
2022-10-16T09:55:46.012Z,96.36
2022-10-16T09:56:46.012Z,96.86
2022-10-16T09:57:45.994Z,97.06
2022-10-16T09:58:45.992Z,97.26
2022-10-16T09:59:45.973Z,96.96
2022-10-16T10:00:45.993Z,97.31
2022-10-16T10:01:45.953Z,97.06
2022-10-16T10:02:45.994Z,96.47
2022-10-16T10:03:45.922Z,96.67
2022-10-16T10:04:45.922Z,96.67
2022-10-16T10:05:45.903Z,96.91
2022-10-16T10:06:45.914Z,96.76
2022-10-16T10:07:45.884Z,97.06
2022-10-16T10:08:45.874Z,96.86
2022-10-16T10:09:45.864Z,97.16
2022-10-16T10:10:45.845Z,97.41
2022-10-16T10:11:45.835Z,97.50
2022-10-16T10:12:45.853Z,97.50
2022-10-16T10:13:45.813Z,97.55
2022-10-16T10:14:45.803Z,97.66
2022-10-16T10:15:45.795Z,97.66
2022-10-16T10:16:45.787Z,97.61
2022-10-16T10:17:45.765Z,97.61
2022-10-16T10:18:45.774Z,97.20
2022-10-16T10:19:45.745Z,97.61
2022-10-16T10:20:45.735Z,97.81
2022-10-16T10:21:45.728Z,97.56
2022-10-16T10:22:45.715Z,97.56
2022-10-16T10:23:45.696Z,97.52
2022-10-16T10:24:45.706Z,97.61
2022-10-16T10:25:45.675Z,97.36
2022-10-16T10:26:48.568Z,97.31
2022-10-16T10:27:45.655Z,97.11
2022-10-16T10:28:45.710Z,97.21
2022-10-16T10:29:45.655Z,96.77
2022-10-16T10:30:45.627Z,96.47
2022-10-16T10:31:45.606Z,96.87
2022-10-16T10:32:45.597Z,96.67
2022-10-16T10:33:45.594Z,96.36
2022-10-16T10:34:45.587Z,96.17
2022-10-16T10:35:45.577Z,96.42
2022-10-16T10:36:45.557Z,96.12
2022-10-16T10:37:45.537Z,96.12
2022-10-16T10:38:45.537Z,95.82
2022-10-16T10:39:45.523Z,95.92
2022-10-16T10:40:45.559Z,95.92
2022-10-16T10:41:45.497Z,96.02
2022-10-16T10:42:45.489Z,96.17
2022-10-16T10:43:45.489Z,96.26
2022-10-16T10:44:45.467Z,96.36
2022-10-16T10:45:45.559Z,96.36
2022-10-16T10:46:45.764Z,96.26
2022-10-16T10:47:45.441Z,96.26
2022-10-16T10:48:45.464Z,96.26
2022-10-16T10:49:48.194Z,96.67
2022-10-16T10:50:45.398Z,96.87
2022-10-16T10:51:45.400Z,96.72
2022-10-16T10:52:45.428Z,96.62
2022-10-16T10:53:45.389Z,96.08
2022-10-16T10:54:45.351Z,95.87
2022-10-16T10:55:45.352Z,95.37
2022-10-16T10:56:45.333Z,95.53
2022-10-16T10:57:45.339Z,95.23
2022-10-16T10:58:45.331Z,94.32
2022-10-16T10:59:45.302Z,94.78
2022-10-16T11:00:45.290Z,93.88
2022-10-16T11:01:45.372Z,94.68
2022-10-16T11:02:45.269Z,94.18
2022-10-16T11:03:45.251Z,93.63
2022-10-16T11:04:45.296Z,93.63
2022-10-16T11:05:45.237Z,93.38
2022-10-16T11:06:45.225Z,93.18
2022-10-16T11:07:45.213Z,93.52
2022-10-16T11:08:45.194Z,94.02
2022-10-16T11:09:45.212Z,94.73
2022-10-16T11:10:45.181Z,94.98
2022-10-16T11:11:45.172Z,93.98
2022-10-16T11:12:45.160Z,92.98
2022-10-16T11:13:45.160Z,92.88
2022-10-16T11:14:45.133Z,92.28
2022-10-16T11:15:45.240Z,92.58
2022-10-16T11:16:45.111Z,91.98
2022-10-16T11:17:45.103Z,91.48
2022-10-16T11:18:45.084Z,91.17
2022-10-16T11:19:45.083Z,91.44
2022-10-16T11:20:45.104Z,91.78
2022-10-16T11:21:45.074Z,91.17
2022-10-16T11:22:45.043Z,91.48
2022-10-16T11:23:45.034Z,92.58
2022-10-16T11:24:45.093Z,92.08
2022-10-16T11:25:45.018Z,93.28
2022-10-16T11:26:44.994Z,92.74
2022-10-16T11:27:45.006Z,91.63
2022-10-16T11:28:45.027Z,90.49
2022-10-16T11:29:44.978Z,90.44
2022-10-16T11:30:44.956Z,90.83
2022-10-16T11:31:44.946Z,91.93
2022-10-16T11:32:44.956Z,90.09
2022-10-16T11:33:44.927Z,90.19
2022-10-16T11:34:44.908Z,87.55
2022-10-16T11:35:44.905Z,87.81
2022-10-16T11:36:44.889Z,85.61
2022-10-16T11:37:44.877Z,84.81
2022-10-16T11:38:44.886Z,86.31
2022-10-16T11:39:44.887Z,85.47
2022-10-16T11:40:44.847Z,81.63
2022-10-16T11:41:44.834Z,81.54
2022-10-16T11:42:44.825Z,81.70
2022-10-16T11:43:44.827Z,81.06
2022-10-16T11:44:44.875Z,79.52
2022-10-16T11:45:44.838Z,77.47
2022-10-16T11:46:58.927Z,78.03
2022-10-16T11:47:58.634Z,79.82
2022-10-16T11:48:45.755Z,77.53
2022-10-16T11:49:44.772Z,77.27
2022-10-16T11:50:44.739Z,78.70
2022-10-16T11:51:44.727Z,79.90
2022-10-16T11:52:44.712Z,80.83
2022-10-16T11:53:44.698Z,80.98
2022-10-16T11:54:44.691Z,84.21
2022-10-16T11:55:46.929Z,85.49
2022-10-16T11:56:44.659Z,87.89
2022-10-16T11:57:44.659Z,87.19
2022-10-16T11:58:44.641Z,88.39
2022-10-16T11:59:44.643Z,88.79
2022-10-16T12:00:44.890Z,88.79
2022-10-16T12:01:44.610Z,89.09
2022-10-16T12:02:44.600Z,89.39
2022-10-16T12:03:46.890Z,86.69
2022-10-16T12:04:44.579Z,89.19
2022-10-16T12:05:44.570Z,87.69
2022-10-16T12:06:44.600Z,88.23
2022-10-16T12:07:44.545Z,88.13
2022-10-16T12:08:44.530Z,88.23
2022-10-16T12:09:44.529Z,89.79
2022-10-16T12:10:44.563Z,87.25
2022-10-16T12:11:44.509Z,88.05
2022-10-16T12:12:44.503Z,86.51
2022-10-16T12:13:44.471Z,85.67
2022-10-16T12:15:11.193Z,84.07
2022-10-16T12:15:58.778Z,83.71
2022-10-16T12:16:45.443Z,84.91
2022-10-16T12:17:44.453Z,84.55
2022-10-16T12:18:44.422Z,85.39
2022-10-16T12:19:44.446Z,86.99
2022-10-16T12:20:44.405Z,86.85
2022-10-16T12:21:44.403Z,85.01
2022-10-16T12:22:44.373Z,83.57
2022-10-16T12:23:44.385Z,82.97
2022-10-16T12:24:44.356Z,82.17
2022-10-16T12:25:44.355Z,81.87
2022-10-16T12:26:44.324Z,80.54
2022-10-16T12:27:44.326Z,81.43
2022-10-16T12:28:44.397Z,80.64
2022-10-16T12:29:44.294Z,79.78
2022-10-16T12:30:44.285Z,80.88
2022-10-16T12:31:49.758Z,80.98
2022-10-16T12:32:47.314Z,81.77
2022-10-16T12:33:44.254Z,82.07
2022-10-16T12:34:44.263Z,80.98
2022-10-16T12:35:44.236Z,81.41
2022-10-16T12:36:44.217Z,81.15
2022-10-16T12:37:44.205Z,81.95
2022-10-16T12:38:44.196Z,82.45
2022-10-16T12:39:44.246Z,82.65
2022-10-16T12:40:44.198Z,84.65
2022-10-16T12:41:44.166Z,84.25
2022-10-16T12:42:44.147Z,82.61
2022-10-16T12:43:44.148Z,82.85
2022-10-16T12:44:44.126Z,83.65
2022-10-16T12:45:44.132Z,83.65
2022-10-16T12:46:44.147Z,83.35
2022-10-16T12:47:44.104Z,82.81
2022-10-16T12:48:55.402Z,82.61
2022-10-16T12:49:45.077Z,83.61
2022-10-16T12:50:44.058Z,84.15
2022-10-16T12:51:44.082Z,84.35
2022-10-16T12:52:44.039Z,84.95
2022-10-16T12:53:44.027Z,86.99
2022-10-16T12:54:44.020Z,87.25
2022-10-16T12:55:44.018Z,86.95